createdAt,value
2022-10-10T00:01:52.727Z,100571.25
2022-10-10T00:04:20.493Z,100568.84
2022-10-10T00:06:48.204Z,100573.97
2022-10-10T00:09:16.721Z,100573.00
2022-10-10T00:11:44.412Z,100568.03
2022-10-10T00:14:13.135Z,100562.22
2022-10-10T00:16:42.771Z,100567.09
2022-10-10T00:19:12.482Z,100558.25
2022-10-10T00:21:42.232Z,100568.84
2022-10-10T00:24:11.687Z,100566.47
2022-10-10T00:26:40.324Z,100566.91
2022-10-10T00:29:07.996Z,100567.97
2022-10-10T00:31:36.601Z,100553.34
2022-10-10T00:34:05.432Z,100552.63
2022-10-10T00:36:33.890Z,100550.69
2022-10-10T00:39:02.355Z,100552.72
2022-10-10T00:41:30.846Z,100546.97
2022-10-10T00:44:12.213Z,100539.16
2022-10-10T00:46:41.210Z,100528.88
2022-10-10T00:49:26.706Z,100536.59
2022-10-10T00:51:59.578Z,100534.69
2022-10-10T00:54:30.024Z,100533.25
2022-10-10T00:57:11.362Z,100535.97
2022-10-10T00:59:42.960Z,100535.66
2022-10-10T01:02:10.637Z,100529.31
2022-10-10T01:04:45.796Z,100530.78
2022-10-10T01:07:28.876Z,100522.78
2022-10-10T01:10:04.592Z,100534.03
2022-10-10T01:12:52.053Z,100528.69
2022-10-10T01:16:07.390Z,100529.59
2022-10-10T01:19:23.252Z,100529.44
2022-10-10T01:22:34.531Z,100523.72
2022-10-10T01:26:02.419Z,100522.59
2022-10-10T01:28:47.666Z,100525.28
2022-10-10T01:31:22.644Z,100530.16
2022-10-10T01:34:20.318Z,100528.72
2022-10-10T01:37:40.755Z,100526.44
2022-10-10T01:40:42.318Z,100517.66
2022-10-10T01:43:12.444Z,100520.22
2022-10-10T01:45:53.595Z,100523.72
2022-10-10T01:48:31.422Z,100515.72
2022-10-10T01:51:29.471Z,100519.66
2022-10-10T01:54:25.712Z,100517.75
2022-10-10T01:57:20.400Z,100519.97
2022-10-10T02:00:19.443Z,100513.56
2022-10-10T02:03:10.246Z,100511.16
2022-10-10T02:06:04.637Z,100509.50
2022-10-10T02:08:42.888Z,100507.91
2022-10-10T02:11:13.508Z,100511.88
2022-10-10T02:14:19.323Z,100509.34
2022-10-10T02:16:52.244Z,100520.94
2022-10-10T02:19:23.688Z,100519.91
2022-10-10T02:21:54.067Z,100520.25
2022-10-10T02:24:24.882Z,100525.06
2022-10-10T02:27:09.752Z,100512.88
2022-10-10T02:29:44.202Z,100519.75
2022-10-10T02:32:40.643Z,100518.25
2022-10-10T02:35:23.829Z,100519.00
2022-10-10T02:37:55.550Z,100511.44
2022-10-10T02:40:30.077Z,100507.63
2022-10-10T02:43:03.569Z,100511.34
2022-10-10T02:45:33.463Z,100512.00
2022-10-10T02:48:03.127Z,100505.75
2022-10-10T02:50:32.895Z,100504.25
2022-10-10T02:53:01.662Z,100511.81
2022-10-10T02:55:30.313Z,100510.53
2022-10-10T02:57:58.897Z,100508.22
2022-10-10T03:00:26.816Z,100507.78
2022-10-10T03:02:55.427Z,100512.22
2022-10-10T03:05:24.006Z,100511.47
2022-10-10T03:07:52.633Z,100512.25
2022-10-10T03:10:21.280Z,100513.25
2022-10-10T03:12:49.381Z,100514.25
2022-10-10T03:15:17.478Z,100508.56
2022-10-10T03:17:45.432Z,100518.94
2022-10-10T03:20:14.134Z,100515.84
2022-10-10T03:22:41.848Z,100508.28
2022-10-10T03:25:10.548Z,100508.19
2022-10-10T03:27:39.184Z,100512.28
2022-10-10T03:30:07.974Z,100505.47
2022-10-10T03:32:35.648Z,100505.88
2022-10-10T03:35:04.729Z,100502.13
2022-10-10T03:37:32.428Z,100508.00
2022-10-10T03:40:01.153Z,100490.63
2022-10-10T03:42:29.698Z,100496.88
2022-10-10T03:44:58.171Z,100499.47
2022-10-10T03:47:26.683Z,100514.38
2022-10-10T03:49:58.349Z,100505.56
2022-10-10T03:52:26.845Z,100503.25
2022-10-10T03:54:54.571Z,100496.44
2022-10-10T03:57:22.454Z,100485.59
2022-10-10T03:59:50.959Z,100504.38
2022-10-10T04:02:19.519Z,100500.56
2022-10-10T04:04:47.303Z,100497.81
2022-10-10T04:07:17.094Z,100503.25
2022-10-10T04:09:45.584Z,100495.94
2022-10-10T04:12:15.176Z,100498.16
2022-10-10T04:14:44.787Z,100496.03
2022-10-10T04:17:12.508Z,100502.75
2022-10-10T04:19:41.128Z,100492.69
2022-10-10T04:22:11.332Z,100501.34
2022-10-10T04:24:39.193Z,100502.44
2022-10-10T04:27:06.915Z,100499.84
2022-10-10T04:29:35.504Z,100492.16
2022-10-10T04:32:04.220Z,100493.94
2022-10-10T04:34:32.941Z,100492.63
2022-10-10T04:37:00.697Z,100495.38
2022-10-10T04:39:29.260Z,100478.56
2022-10-10T04:41:57.167Z,100484.97
2022-10-10T04:44:24.916Z,100489.66
2022-10-10T04:46:53.498Z,100486.28
2022-10-10T04:49:21.433Z,100485.72
2022-10-10T04:51:50.843Z,100495.78
2022-10-10T04:54:18.546Z,100497.13
2022-10-10T04:56:47.169Z,100488.16
2022-10-10T04:59:15.767Z,100490.31
2022-10-10T05:01:44.492Z,100490.72
2022-10-10T05:04:14.357Z,100488.41
2022-10-10T05:06:44.792Z,100493.91
2022-10-10T05:09:14.343Z,100490.00
2022-10-10T05:11:43.919Z,100495.47
2022-10-10T05:14:13.540Z,100489.69
2022-10-10T05:16:43.012Z,100491.59
2022-10-10T05:19:12.532Z,100496.19
2022-10-10T05:21:42.041Z,100492.56
2022-10-10T05:24:11.511Z,100491.34
2022-10-10T05:26:43.268Z,100497.38
2022-10-10T05:29:12.921Z,100504.03
2022-10-10T05:31:41.577Z,100500.63
2022-10-10T05:34:15.194Z,100506.34
2022-10-10T05:36:43.653Z,100506.19
2022-10-10T05:39:12.144Z,100509.88
2022-10-10T05:41:39.844Z,100506.69
2022-10-10T05:44:10.290Z,100512.19
2022-10-10T05:46:39.694Z,100512.75
2022-10-10T05:49:09.207Z,100513.38
2022-10-10T05:51:37.860Z,100516.06
2022-10-10T05:54:05.713Z,100518.63
2022-10-10T05:56:33.450Z,100517.06
2022-10-10T05:59:02.860Z,100512.19
2022-10-10T06:01:31.529Z,100520.25
2022-10-10T06:04:00.160Z,100520.16
2022-10-10T06:06:27.885Z,100523.75
2022-10-10T06:08:56.735Z,100525.09
2022-10-10T06:11:26.228Z,100528.91
2022-10-10T06:13:54.490Z,100512.50
2022-10-10T06:16:28.148Z,100515.88
2022-10-10T06:18:57.338Z,100519.03
2022-10-10T06:21:26.149Z,100519.16
2022-10-10T06:23:54.802Z,100524.53
2022-10-10T06:26:22.585Z,100520.56
2022-10-10T06:28:50.986Z,100522.31
2022-10-10T06:31:18.986Z,100521.41
2022-10-10T06:33:48.254Z,100525.66
2022-10-10T06:36:17.705Z,100520.16
2022-10-10T06:38:46.768Z,100527.47
2022-10-10T06:41:15.449Z,100534.22
2022-10-10T06:43:44.348Z,100540.91
2022-10-10T06:46:13.494Z,100549.56
2022-10-10T06:48:41.921Z,100543.22
2022-10-10T06:51:16.323Z,100544.06
2022-10-10T06:53:46.118Z,100540.72
2022-10-10T06:56:24.914Z,100534.38
2022-10-10T06:58:56.438Z,100543.38
2022-10-10T07:01:27.040Z,100528.34
2022-10-10T07:03:55.685Z,100528.22
2022-10-10T07:06:23.697Z,100526.81
2022-10-10T07:08:51.394Z,100532.78
2022-10-10T07:11:19.144Z,100534.84
2022-10-10T07:13:46.817Z,100536.16
2022-10-10T07:16:14.449Z,100540.25
2022-10-10T07:18:42.087Z,100541.66
2022-10-10T07:21:12.399Z,100539.91
2022-10-10T07:23:42.033Z,100537.53
2022-10-10T07:26:21.015Z,100538.94
2022-10-10T07:28:50.117Z,100534.59
2022-10-10T07:31:17.803Z,100545.66
2022-10-10T07:33:50.806Z,100534.44
2022-10-10T07:36:19.885Z,100535.59
2022-10-10T07:38:52.248Z,100543.59
2022-10-10T07:41:21.625Z,100536.75
2022-10-10T07:43:54.379Z,100532.03
2022-10-10T07:46:22.188Z,100533.78
2022-10-10T07:48:51.788Z,100537.06
2022-10-10T07:51:19.481Z,100528.44
2022-10-10T07:53:47.208Z,100533.75
2022-10-10T07:56:14.872Z,100537.88
2022-10-10T07:58:42.543Z,100536.53
2022-10-10T08:01:13.134Z,100538.00
2022-10-10T08:03:41.344Z,100532.03
2022-10-10T08:06:14.931Z,100539.00
2022-10-10T08:08:50.746Z,100528.94
2022-10-10T08:11:21.901Z,100528.75
2022-10-10T08:13:50.517Z,100538.00
2022-10-10T08:16:20.587Z,100535.81
2022-10-10T08:18:48.314Z,100536.47
2022-10-10T08:21:16.971Z,100534.31
2022-10-10T08:23:44.942Z,100532.63
2022-10-10T08:26:17.183Z,100532.97
2022-10-10T08:28:45.990Z,100521.56
2022-10-10T08:31:21.475Z,100525.63
2022-10-10T08:33:51.906Z,100517.09
2022-10-10T08:36:24.138Z,100519.25
2022-10-10T08:38:57.475Z,100514.31
2022-10-10T08:42:01.330Z,100507.63
2022-10-10T08:44:48.542Z,100518.03
2022-10-10T08:47:37.054Z,100519.25
2022-10-10T08:50:24.494Z,100513.47
2022-10-10T08:53:08.981Z,100519.50
2022-10-10T08:55:46.477Z,100510.06
2022-10-10T08:58:48.247Z,100509.84
2022-10-10T09:01:28.011Z,100511.06
2022-10-10T09:04:01.328Z,100510.78
2022-10-10T09:07:01.289Z,100510.59
2022-10-10T09:10:13.233Z,100505.81
2022-10-10T09:13:11.102Z,100506.59
2022-10-10T09:15:58.465Z,100506.59
2022-10-10T09:19:44.887Z,100505.28
2022-10-10T09:22:25.861Z,100505.41
2022-10-10T09:25:19.416Z,100506.44
2022-10-10T09:28:25.230Z,100504.31
2022-10-10T09:30:58.173Z,100508.25
2022-10-10T09:33:46.563Z,100484.41
2022-10-10T09:36:23.767Z,100490.59
2022-10-10T09:38:59.587Z,100488.72
2022-10-10T09:41:43.871Z,100489.63
2022-10-10T09:44:14.985Z,100478.47
2022-10-10T09:46:42.862Z,100478.41
2022-10-10T09:49:17.312Z,100462.72
2022-10-10T09:51:48.983Z,100479.03
2022-10-10T09:54:20.200Z,100481.72
2022-10-10T09:56:57.631Z,100471.38
2022-10-10T09:59:46.698Z,100478.25
2022-10-10T10:02:27.156Z,100479.69
2022-10-10T10:04:56.132Z,100480.53
2022-10-10T10:07:36.478Z,100473.81
2022-10-10T10:10:36.181Z,100470.53
2022-10-10T10:13:04.003Z,100467.13
2022-10-10T10:15:33.320Z,100464.66
2022-10-10T10:18:30.996Z,100463.00
2022-10-10T10:21:07.413Z,100463.31
2022-10-10T10:23:56.855Z,100464.94
2022-10-10T10:26:47.836Z,100461.88
2022-10-10T10:29:33.983Z,100463.69
2022-10-10T10:32:28.694Z,100467.91
2022-10-10T10:35:12.880Z,100463.50
2022-10-10T10:38:06.880Z,100450.03
2022-10-10T10:40:50.059Z,100449.78
2022-10-10T10:43:40.282Z,100445.72
2022-10-10T10:46:57.473Z,100441.00
2022-10-10T10:49:52.870Z,100448.78
2022-10-10T10:53:03.356Z,100442.88
2022-10-10T10:55:39.299Z,100435.72
2022-10-10T11:02:10.435Z,100434.97
2022-10-10T11:05:18.787Z,100426.47
2022-10-10T11:08:26.816Z,100434.44
2022-10-10T11:11:28.902Z,100428.06
2022-10-10T11:14:36.948Z,100430.78
2022-10-10T11:17:44.004Z,100420.75
2022-10-10T11:20:43.782Z,100414.28
2022-10-10T11:23:25.893Z,100418.03
2022-10-10T11:26:08.489Z,100410.25
2022-10-10T11:29:03.388Z,100406.34
2022-10-10T11:32:01.005Z,100403.84
2022-10-10T11:34:42.644Z,100400.88
2022-10-10T11:37:29.395Z,100398.53
2022-10-10T11:40:06.225Z,100392.41
2022-10-10T11:43:08.420Z,100385.00
2022-10-10T11:45:53.667Z,100385.97
2022-10-10T11:49:12.033Z,100388.00
2022-10-10T11:52:09.435Z,100378.34
2022-10-10T11:55:40.931Z,100378.78
2022-10-10T11:58:09.280Z,100381.66
2022-10-10T12:00:50.578Z,100369.88
2022-10-10T12:03:20.066Z,100370.94
2022-10-10T12:06:28.138Z,100366.19
2022-10-10T12:09:27.488Z,100352.50
2022-10-10T12:12:08.215Z,100351.66
2022-10-10T12:14:44.868Z,100353.13
2022-10-10T12:17:30.113Z,100347.72
2022-10-10T12:20:30.696Z,100345.66
2022-10-10T12:23:30.529Z,100336.69
2022-10-10T12:25:59.940Z,100339.94
2022-10-10T12:28:38.147Z,100339.53
2022-10-10T12:31:06.556Z,100336.56
2022-10-10T12:33:34.929Z,100336.66
2022-10-10T12:36:19.555Z,100335.09
2022-10-10T12:39:08.276Z,100335.25
2022-10-10T12:41:57.222Z,100336.75
2022-10-10T12:44:42.961Z,100326.03
2022-10-10T12:47:14.989Z,100321.66
2022-10-10T12:50:18.547Z,100328.16
2022-10-10T12:52:57.342Z,100320.72
2022-10-10T12:55:45.199Z,100328.13
2022-10-10T12:58:37.471Z,100328.38
2022-10-10T13:01:33.224Z,100327.59
2022-10-10T13:04:02.134Z,100327.66
2022-10-10T13:06:59.196Z,100324.59
2022-10-10T13:09:35.582Z,100319.78
2022-10-10T13:12:22.190Z,100322.75
2022-10-10T13:14:50.667Z,100318.69
2022-10-10T13:17:42.334Z,100324.13
2022-10-10T13:20:39.809Z,100315.56
2022-10-10T13:23:14.577Z,100321.25
2022-10-10T13:25:46.921Z,100319.59
2022-10-10T13:28:22.165Z,100323.91
2022-10-10T13:30:52.638Z,100314.97
2022-10-10T13:33:28.982Z,100322.28
2022-10-10T13:36:16.164Z,100323.63
2022-10-10T13:38:47.177Z,100308.66
2022-10-10T13:41:19.254Z,100321.16
2022-10-10T13:43:47.700Z,100317.16
2022-10-10T13:46:33.522Z,100309.47
2022-10-10T13:49:02.157Z,100317.22
2022-10-10T13:51:47.469Z,100299.97
2022-10-10T13:54:43.542Z,100300.78
2022-10-10T13:57:27.937Z,100291.16
2022-10-10T14:00:17.543Z,100278.47
2022-10-10T14:02:47.289Z,100281.53
2022-10-10T14:05:30.901Z,100290.16
2022-10-10T14:08:01.476Z,100287.28
2022-10-10T14:10:37.210Z,100284.03
2022-10-10T14:13:06.065Z,100285.78
2022-10-10T14:15:41.709Z,100277.59
2022-10-10T14:18:24.780Z,100274.88
2022-10-10T14:20:54.043Z,100276.63
2022-10-10T14:23:23.488Z,100266.47
2022-10-10T14:25:53.416Z,100269.75
2022-10-10T14:28:27.812Z,100262.59
2022-10-10T14:30:57.315Z,100262.84
2022-10-10T14:33:27.797Z,100255.34
2022-10-10T14:35:58.723Z,100265.47
2022-10-10T14:38:28.368Z,100263.47
2022-10-10T14:40:56.571Z,100257.31
2022-10-10T14:43:25.340Z,100249.81
2022-10-10T14:45:54.659Z,100248.44
2022-10-10T14:48:23.342Z,100255.22
2022-10-10T14:50:51.962Z,100252.34
2022-10-10T14:53:21.323Z,100249.03
2022-10-10T14:55:55.320Z,100246.72
2022-10-10T14:58:24.809Z,100241.66
2022-10-10T15:00:56.984Z,100241.31
2022-10-10T15:03:25.490Z,100236.13
2022-10-10T15:05:53.229Z,100242.22
2022-10-10T15:08:21.609Z,100237.66
2022-10-10T15:10:50.061Z,100238.75
2022-10-10T15:13:17.768Z,100226.84
2022-10-10T15:15:48.285Z,100224.47
2022-10-10T15:18:49.253Z,100225.81
2022-10-10T15:21:13.024Z,100224.97
2022-10-10T15:23:41.025Z,100224.97
2022-10-10T15:26:09.556Z,100220.25
2022-10-10T15:28:40.782Z,100216.59
2022-10-10T15:31:09.464Z,100217.00
2022-10-10T15:33:37.127Z,100215.13
2022-10-10T15:36:10.179Z,100218.16
2022-10-10T15:38:40.580Z,100218.94
2022-10-10T15:41:10.840Z,100203.06
2022-10-10T15:43:57.253Z,100209.78
2022-10-10T15:46:28.970Z,100216.59
2022-10-10T15:49:03.803Z,100218.66
2022-10-10T15:51:32.402Z,100214.78
2022-10-10T15:54:02.796Z,100214.97
2022-10-10T15:56:31.805Z,100211.91
2022-10-10T15:59:03.892Z,100217.31
2022-10-10T16:01:32.807Z,100212.97
2022-10-10T16:04:04.437Z,100222.22
2022-10-10T16:06:34.402Z,100221.81
2022-10-10T16:09:23.839Z,100225.69
2022-10-10T16:11:52.991Z,100214.28
2022-10-10T16:14:22.390Z,100220.81
2022-10-10T16:16:52.036Z,100215.34
2022-10-10T16:19:20.519Z,100214.09
2022-10-10T16:21:50.536Z,100211.25
2022-10-10T16:24:20.109Z,100216.66
2022-10-10T16:26:50.809Z,100211.66
2022-10-10T16:29:20.769Z,100210.53
2022-10-10T16:31:49.344Z,100210.75
2022-10-10T16:34:19.714Z,100215.16
2022-10-10T16:36:49.176Z,100218.00
2022-10-10T16:39:18.673Z,100218.84
2022-10-10T16:41:49.129Z,100217.69
2022-10-10T16:44:18.895Z,100214.13
2022-10-10T16:46:47.496Z,100218.53
2022-10-10T16:49:17.198Z,100217.91
2022-10-10T16:51:46.585Z,100214.97
2022-10-10T16:54:15.249Z,100210.16
2022-10-10T16:56:44.736Z,100214.78
2022-10-10T16:59:14.227Z,100209.78
2022-10-10T17:01:42.001Z,100215.19
2022-10-10T17:04:11.505Z,100216.34
2022-10-10T17:06:41.064Z,100216.53
2022-10-10T17:09:11.648Z,100220.19
2022-10-10T17:11:41.241Z,100218.66
2022-10-10T17:14:12.034Z,100219.72
2022-10-10T17:19:33.000Z,100226.03
2022-10-10T17:22:02.545Z,100227.97
2022-10-10T17:24:32.079Z,100222.56
2022-10-10T17:27:02.505Z,100225.19
2022-10-10T17:29:32.956Z,100218.22
2022-10-10T17:32:06.611Z,100228.63
2022-10-10T17:34:36.552Z,100214.09
2022-10-10T17:37:05.417Z,100217.38
2022-10-10T17:39:35.005Z,100209.25
2022-10-10T17:42:05.288Z,100202.66
2022-10-10T17:44:39.108Z,100204.91
2022-10-10T17:47:10.026Z,100207.59
2022-10-10T17:49:41.306Z,100200.56
2022-10-10T17:52:09.032Z,100209.69
2022-10-10T17:54:36.760Z,100211.16
2022-10-10T17:57:06.307Z,100207.84
2022-10-10T17:59:34.122Z,100201.88
2022-10-10T18:02:01.926Z,100205.41
2022-10-10T18:04:31.579Z,100203.09
2022-10-10T18:07:01.224Z,100204.44
2022-10-10T18:09:30.809Z,100200.09
2022-10-10T18:12:01.028Z,100201.44
2022-10-10T18:14:30.727Z,100195.00
2022-10-10T18:17:02.212Z,100203.16
2022-10-10T18:19:34.129Z,100197.97
2022-10-10T18:22:04.188Z,100195.63
2022-10-10T18:24:34.214Z,100200.38
2022-10-10T18:27:03.910Z,100197.97
2022-10-10T18:29:31.713Z,100199.81
2022-10-10T18:31:59.806Z,100199.09
2022-10-10T18:34:29.440Z,100195.91
2022-10-10T18:36:59.100Z,100200.84
2022-10-10T18:39:32.224Z,100198.16
2022-10-10T18:42:04.216Z,100194.34
2022-10-10T18:44:32.056Z,100192.38
2022-10-10T18:47:01.622Z,100200.00
2022-10-10T18:49:29.902Z,100205.78
2022-10-10T18:51:57.854Z,100198.66
2022-10-10T18:54:30.349Z,100196.69
2022-10-10T18:57:00.782Z,100198.84
2022-10-10T18:59:32.156Z,100195.19
2022-10-10T19:01:59.965Z,100196.50
2022-10-10T19:04:28.675Z,100204.22
2022-10-10T19:06:58.399Z,100198.34
2022-10-10T19:09:27.989Z,100199.38
2022-10-10T19:11:57.519Z,100197.09
2022-10-10T19:14:27.168Z,100200.22
2022-10-10T19:16:56.728Z,100197.72
2022-10-10T19:19:24.584Z,100196.94
2022-10-10T19:21:54.161Z,100202.31
2022-10-10T19:24:23.724Z,100204.16
2022-10-10T19:26:56.924Z,100205.34
2022-10-10T19:29:28.884Z,100203.94
2022-10-10T19:31:56.930Z,100201.44
2022-10-10T19:34:26.501Z,100201.78
2022-10-10T19:36:56.622Z,100205.28
2022-10-10T19:39:26.208Z,100208.53
2022-10-10T19:41:55.741Z,100199.03
2022-10-10T19:44:25.259Z,100205.25
2022-10-10T19:46:55.227Z,100194.06
2022-10-10T19:49:24.743Z,100199.53
2022-10-10T19:51:54.508Z,100198.50
2022-10-10T19:54:24.190Z,100200.13
2022-10-10T19:56:53.721Z,100203.66
2022-10-10T19:59:23.143Z,100187.41
2022-10-10T20:01:52.758Z,100191.19
2022-10-10T20:04:21.629Z,100187.22
2022-10-10T20:06:51.038Z,100197.00
2022-10-10T20:09:20.638Z,100184.38
2022-10-10T20:11:50.177Z,100194.69
2022-10-10T20:14:19.600Z,100194.41
2022-10-10T20:16:49.076Z,100185.25
2022-10-10T20:19:17.705Z,100188.56
2022-10-10T20:21:47.169Z,100195.47
2022-10-10T20:24:16.897Z,100194.41
2022-10-10T20:26:46.379Z,100186.34
2022-10-10T20:29:15.995Z,100187.69
2022-10-10T20:31:44.641Z,100182.00
2022-10-10T20:34:14.123Z,100193.03
2022-10-10T20:36:43.563Z,100192.84
2022-10-10T20:39:14.581Z,100188.47
2022-10-10T20:41:44.078Z,100194.66
2022-10-10T20:44:15.096Z,100190.72
2022-10-10T20:46:46.293Z,100197.84
2022-10-10T20:49:21.886Z,100200.06
2022-10-10T20:51:51.985Z,100203.91
2022-10-10T20:54:23.616Z,100201.72
2022-10-10T20:56:53.104Z,100195.47
2022-10-10T20:59:24.669Z,100204.84
2022-10-10T21:01:53.379Z,100197.97
2022-10-10T21:04:22.806Z,100189.25
2022-10-10T21:06:52.181Z,100191.47
2022-10-10T21:09:20.964Z,100194.44
2022-10-10T21:11:51.608Z,100193.56
2022-10-10T21:14:20.524Z,100195.28
2022-10-10T21:16:50.732Z,100203.66
2022-10-10T21:19:20.586Z,100203.75
2022-10-10T21:21:49.407Z,100200.72
2022-10-10T21:24:17.988Z,100204.88
2022-10-10T21:26:49.264Z,100200.06
2022-10-10T21:29:18.473Z,100199.25
2022-10-10T21:31:47.377Z,100206.97
2022-10-10T21:34:19.510Z,100195.72
2022-10-10T21:36:48.454Z,100199.09
2022-10-10T21:39:17.393Z,100199.94
2022-10-10T21:41:46.820Z,100197.13
2022-10-10T21:44:16.355Z,100199.53
2022-10-10T21:46:44.934Z,100202.28
2022-10-10T21:49:14.474Z,100200.91
2022-10-10T21:51:46.138Z,100195.53
2022-10-10T21:54:15.896Z,100191.88
2022-10-10T21:56:45.657Z,100191.63
2022-10-10T21:59:15.095Z,100193.47
2022-10-10T22:01:44.565Z,100187.84
2022-10-10T22:04:13.951Z,100188.94
2022-10-10T22:06:42.815Z,100176.81
2022-10-10T22:09:12.250Z,100183.81
2022-10-10T22:11:40.951Z,100185.66
2022-10-10T22:14:10.395Z,100189.06
2022-10-10T22:16:40.095Z,100195.97
2022-10-10T22:19:08.806Z,100193.03
2022-10-10T22:21:37.524Z,100193.66
2022-10-10T22:24:09.094Z,100194.84
2022-10-10T22:26:38.603Z,100195.03
2022-10-10T22:29:07.257Z,100192.06
2022-10-10T22:31:37.880Z,100192.06
2022-10-10T22:34:08.032Z,100187.41
2022-10-10T22:36:37.588Z,100174.47
2022-10-10T22:39:07.419Z,100176.47
2022-10-10T22:41:37.376Z,100170.84
2022-10-10T22:44:06.190Z,100176.72
2022-10-10T22:46:35.729Z,100184.91
2022-10-10T22:49:04.761Z,100175.59
2022-10-10T22:51:34.457Z,100186.41
2022-10-10T22:54:03.123Z,100166.94
2022-10-10T22:56:33.302Z,100178.00
2022-10-10T22:59:01.860Z,100176.44
2022-10-10T23:01:31.405Z,100170.97
2022-10-10T23:04:03.542Z,100167.22
2022-10-10T23:06:32.921Z,100180.75
2022-10-10T23:09:02.284Z,100180.84
2022-10-10T23:11:30.948Z,100178.06
2022-10-10T23:13:59.538Z,100171.81
2022-10-10T23:16:28.160Z,100172.69
2022-10-10T23:18:57.032Z,100177.47
2022-10-10T23:21:26.502Z,100181.06
2022-10-10T23:23:55.469Z,100180.56
2022-10-10T23:26:24.925Z,100178.59
2022-10-10T23:28:54.448Z,100180.13
2022-10-10T23:31:23.951Z,100175.66
2022-10-10T23:33:52.525Z,100180.72
2022-10-10T23:36:21.972Z,100178.13
2022-10-10T23:38:51.491Z,100173.75
2022-10-10T23:41:21.365Z,100170.03
2022-10-10T23:43:50.009Z,100166.66
2022-10-10T23:46:18.893Z,100174.44
2022-10-10T23:48:47.479Z,100172.03
2022-10-10T23:51:17.711Z,100163.97
2022-10-10T23:53:47.141Z,100165.94
2022-10-10T23:56:16.516Z,100171.16
2022-10-10T23:58:45.152Z,100156.47
